sensor_id;sensor_type;location;lat;lon;timestamp;pressure;altitude;pressure_sealevel;temperature;humidity
4410;BME280;2218;51.408;7.208;2023-08-07T00:01:38;99258.97;;;20.62;60.33
4410;BME280;2218;51.408;7.208;2023-08-07T00:04:05;99253.69;;;20.62;60.51
4410;BME280;2218;51.408;7.208;2023-08-07T00:06:32;99253.69;;;20.62;60.32
4410;BME280;2218;51.408;7.208;2023-08-07T00:08:59;99253.69;;;20.62;60.52
4410;BME280;2218;51.408;7.208;2023-08-07T00:11:26;99254.66;;;20.61;60.34
4410;BME280;2218;51.408;7.208;2023-08-07T00:13:54;99253.69;;;20.62;60.36
4410;BME280;2218;51.408;7.208;2023-08-07T00:16:21;99252.84;;;20.61;60.57
4410;BME280;2218;51.408;7.208;2023-08-07T00:18:49;99252.03;;;20.61;60.22
4410;BME280;2218;51.408;7.208;2023-08-07T00:21:18;99254.66;;;20.61;60.51
4410;BME280;2218;51.408;7.208;2023-08-07T00:23:45;99261.75;;;20.60;60.37
4410;BME280;2218;51.408;7.208;2023-08-07T00:26:12;99255.63;;;20.60;60.38
4410;BME280;2218;51.408;7.208;2023-08-07T00:28:39;99261.88;;;20.59;60.29
4410;BME280;2218;51.408;7.208;2023-08-07T00:31:06;99258.28;;;20.60;60.38
4410;BME280;2218;51.408;7.208;2023-08-07T00:33:32;99255.63;;;20.60;60.46
4410;BME280;2218;51.408;7.208;2023-08-07T00:36:01;99255.63;;;20.60;60.46
4410;BME280;2218;51.408;7.208;2023-08-07T00:38:27;99268.94;;;20.58;60.53
4410;BME280;2218;51.408;7.208;2023-08-07T00:40:54;99259.25;;;20.59;60.24
4410;BME280;2218;51.408;7.208;2023-08-07T00:43:21;99265.47;;;20.58;60.49
4410;BME280;2218;51.408;7.208;2023-08-07T00:45:49;99272.44;;;20.59;60.37
4410;BME280;2218;51.408;7.208;2023-08-07T00:48:17;99271.72;;;20.57;60.16
4410;BME280;2218;51.408;7.208;2023-08-07T00:50:46;99285.66;;;20.59;60.48
4410;BME280;2218;51.408;7.208;2023-08-07T00:53:16;99281.31;;;20.58;60.21
4410;BME280;2218;51.408;7.208;2023-08-07T00:55:44;99278.66;;;20.58;60.20
4410;BME280;2218;51.408;7.208;2023-08-07T00:58:11;99281.31;;;20.58;60.36
4410;BME280;2218;51.408;7.208;2023-08-07T01:00:38;99288.38;;;20.57;60.40
4410;BME280;2218;51.408;7.208;2023-08-07T01:03:07;99283.09;;;20.57;60.35
4410;BME280;2218;51.408;7.208;2023-08-07T01:05:34;99288.38;;;20.57;60.30
4410;BME280;2218;51.408;7.208;2023-08-07T01:08:02;99291.16;;;20.56;60.26
4410;BME280;2218;51.408;7.208;2023-08-07T01:10:42;99288.38;;;20.57;60.35
4410;BME280;2218;51.408;7.208;2023-08-07T01:13:22;99292.00;;;20.56;60.46
4410;BME280;2218;51.408;7.208;2023-08-07T01:15:56;99292.00;;;20.56;60.16
4410;BME280;2218;51.408;7.208;2023-08-07T01:18:25;99292.00;;;20.56;60.30
4410;BME280;2218;51.408;7.208;2023-08-07T01:20:53;99291.16;;;20.56;59.90
4410;BME280;2218;51.408;7.208;2023-08-07T01:23:21;99294.63;;;20.56;60.11
4410;BME280;2218;51.408;7.208;2023-08-07T01:25:48;99288.53;;;20.56;60.07
4410;BME280;2218;51.408;7.208;2023-08-07T01:28:25;99289.50;;;20.55;60.09
4410;BME280;2218;51.408;7.208;2023-08-07T01:30:59;99295.59;;;20.55;59.88
4410;BME280;2218;51.408;7.208;2023-08-07T01:33:37;99300.06;;;20.55;60.05
4410;BME280;2218;51.408;7.208;2023-08-07T01:36:08;99289.50;;;20.55;60.26
4410;BME280;2218;51.408;7.208;2023-08-07T01:38:38;99301.84;;;20.54;59.94
4410;BME280;2218;51.408;7.208;2023-08-07T01:41:06;99299.22;;;20.54;60.28
4410;BME280;2218;51.408;7.208;2023-08-07T01:43:33;99300.06;;;20.55;60.05
4410;BME280;2218;51.408;7.208;2023-08-07T01:46:01;99305.44;;;20.53;60.19
4410;BME280;2218;51.408;7.208;2023-08-07T01:48:28;99303.66;;;20.54;60.03
4410;BME280;2218;51.408;7.208;2023-08-07T01:50:56;99316.00;;;20.53;60.24
4410;BME280;2218;51.408;7.208;2023-08-07T01:53:23;99305.44;;;20.53;60.00
4410;BME280;2218;51.408;7.208;2023-08-07T01:55:51;99311.69;;;20.52;59.89
4410;BME280;2218;51.408;7.208;2023-08-07T01:58:18;99302.09;;;20.51;59.96
4410;BME280;2218;51.408;7.208;2023-08-07T02:00:45;99302.94;;;20.52;59.94
4410;BME280;2218;51.408;7.208;2023-08-07T02:03:12;99299.44;;;20.51;59.98
4410;BME280;2218;51.408;7.208;2023-08-07T02:05:39;99305.56;;;20.52;60.11
4410;BME280;2218;51.408;7.208;2023-08-07T02:08:06;99305.56;;;20.52;59.98
4410;BME280;2218;51.408;7.208;2023-08-07T02:10:33;99300.28;;;20.52;59.96
4410;BME280;2218;51.408;7.208;2023-08-07T02:13:02;99304.72;;;20.51;60.13
4410;BME280;2218;51.408;7.208;2023-08-07T02:15:29;99310.84;;;20.52;60.12
4410;BME280;2218;51.408;7.208;2023-08-07T02:17:56;99314.47;;;20.51;60.28
4410;BME280;2218;51.408;7.208;2023-08-07T02:20:24;99309.19;;;20.51;60.08
4410;BME280;2218;51.408;7.208;2023-08-07T02:22:51;99312.78;;;20.50;59.92
4410;BME280;2218;51.408;7.208;2023-08-07T02:25:19;99307.50;;;20.50;60.07
4410;BME280;2218;51.408;7.208;2023-08-07T02:27:46;99311.81;;;20.51;60.10
4410;BME280;2218;51.408;7.208;2023-08-07T02:30:14;99319.03;;;20.49;59.91
4410;BME280;2218;51.408;7.208;2023-08-07T02:32:41;99318.06;;;20.50;59.89
4410;BME280;2218;51.408;7.208;2023-08-07T02:35:11;99312.78;;;20.50;60.01
4410;BME280;2218;51.408;7.208;2023-08-07T02:37:38;99315.44;;;20.50;59.96
4410;BME280;2218;51.408;7.208;2023-08-07T02:40:06;99316.41;;;20.49;59.91
4410;BME280;2218;51.408;7.208;2023-08-07T02:42:34;99319.03;;;20.49;59.86
4410;BME280;2218;51.408;7.208;2023-08-07T02:45:01;99326.94;;;20.49;60.04
4410;BME280;2218;51.408;7.208;2023-08-07T02:47:30;99324.31;;;20.49;59.92
4410;BME280;2218;51.408;7.208;2023-08-07T02:49:57;99312.06;;;20.48;59.99
4410;BME280;2218;51.408;7.208;2023-08-07T02:52:25;99325.25;;;20.48;59.98
4410;BME280;2218;51.408;7.208;2023-08-07T02:54:52;99318.31;;;20.47;59.91
4410;BME280;2218;51.408;7.208;2023-08-07T02:57:19;99321.78;;;20.47;59.92
4410;BME280;2218;51.408;7.208;2023-08-07T02:59:46;99316.59;;;20.46;59.92
4410;BME280;2218;51.408;7.208;2023-08-07T03:02:13;99322.72;;;20.46;60.02
4410;BME280;2218;51.408;7.208;2023-08-07T03:04:41;99322.72;;;20.46;59.70
4410;BME280;2218;51.408;7.208;2023-08-07T03:07:08;99320.94;;;20.47;59.93
4410;BME280;2218;51.408;7.208;2023-08-07T03:09:35;99322.72;;;20.46;59.86
4410;BME280;2218;51.408;7.208;2023-08-07T03:12:03;99328.00;;;20.46;59.94
4410;BME280;2218;51.408;7.208;2023-08-07T03:14:31;99321.88;;;20.46;59.89
4410;BME280;2218;51.408;7.208;2023-08-07T03:16:58;99321.88;;;20.46;59.85
4410;BME280;2218;51.408;7.208;2023-08-07T03:19:25;99331.59;;;20.45;59.80
4410;BME280;2218;51.408;7.208;2023-08-07T03:21:53;99325.47;;;20.45;59.69
4410;BME280;2218;51.408;7.208;2023-08-07T03:24:20;99334.25;;;20.45;59.94
4410;BME280;2218;51.408;7.208;2023-08-07T03:26:47;99323.78;;;20.44;59.73
4410;BME280;2218;51.408;7.208;2023-08-07T03:29:15;99324.66;;;20.44;59.63
4410;BME280;2218;51.408;7.208;2023-08-07T03:31:43;99325.47;;;20.45;59.80
4410;BME280;2218;51.408;7.208;2023-08-07T03:34:11;99329.94;;;20.44;59.73
4410;BME280;2218;51.408;7.208;2023-08-07T03:36:38;99327.28;;;20.44;59.69
4410;BME280;2218;51.408;7.208;2023-08-07T03:39:06;99332.56;;;20.44;59.53
4410;BME280;2218;51.408;7.208;2023-08-07T03:41:33;99334.34;;;20.44;59.67
4410;BME280;2218;51.408;7.208;2023-08-07T03:44:00;99339.63;;;20.44;59.71
4410;BME280;2218;51.408;7.208;2023-08-07T03:46:28;99338.78;;;20.43;59.86
4410;BME280;2218;51.408;7.208;2023-08-07T03:48:54;99342.25;;;20.44;59.73
4410;BME280;2218;51.408;7.208;2023-08-07T03:51:22;99349.34;;;20.43;59.70
4410;BME280;2218;51.408;7.208;2023-08-07T03:53:52;99346.84;;;20.42;59.96
4410;BME280;2218;51.408;7.208;2023-08-07T03:56:22;99339.75;;;20.42;59.62
4410;BME280;2218;51.408;7.208;2023-08-07T03:58:49;99336.28;;;20.42;59.64
4410;BME280;2218;51.408;7.208;2023-08-07T04:01:16;99339.88;;;20.40;59.65
4410;BME280;2218;51.408;7.208;2023-08-07T04:03:45;99333.63;;;20.42;59.68
4410;BME280;2218;51.408;7.208;2023-08-07T04:06:13;99339.88;;;20.40;59.49
4410;BME280;2218;51.408;7.208;2023-08-07T04:08:41;99345.16;;;20.40;59.62
4410;BME280;2218;51.408;7.208;2023-08-07T04:11:08;99354.88;;;20.40;59.66
4410;BME280;2218;51.408;7.208;2023-08-07T04:13:37;99339.88;;;20.40;59.52
4410;BME280;2218;51.408;7.208;2023-08-07T04:16:05;99334.59;;;20.40;59.58
4410;BME280;2218;51.408;7.208;2023-08-07T04:18:33;99340.84;;;20.39;59.69
4410;BME280;2218;51.408;7.208;2023-08-07T04:21:01;99337.38;;;20.39;59.63
4410;BME280;2218;51.408;7.208;2023-08-07T04:23:28;99354.03;;;20.39;59.49
4410;BME280;2218;51.408;7.208;2023-08-07T04:25:57;99347.94;;;20.39;59.83
4410;BME280;2218;51.408;7.208;2023-08-07T04:28:24;99358.50;;;20.39;59.65
4410;BME280;2218;51.408;7.208;2023-08-07T04:30:52;99347.06;;;20.38;59.64
4410;BME280;2218;51.408;7.208;2023-08-07T04:33:20;99353.31;;;20.37;59.51
4410;BME280;2218;51.408;7.208;2023-08-07T04:35:47;99354.16;;;20.38;59.68
4410;BME280;2218;51.408;7.208;2023-08-07T04:38:15;99352.34;;;20.38;59.60
4410;BME280;2218;51.408;7.208;2023-08-07T04:40:45;99360.25;;;20.38;59.61
4410;BME280;2218;51.408;7.208;2023-08-07T04:43:13;99362.06;;;20.38;59.64
4410;BME280;2218;51.408;7.208;2023-08-07T04:45:40;99363.03;;;20.37;59.55
4410;BME280;2218;51.408;7.208;2023-08-07T04:48:09;99362.91;;;20.38;59.56
4410;BME280;2218;51.408;7.208;2023-08-07T04:50:35;99361.22;;;20.37;59.63
4410;BME280;2218;51.408;7.208;2023-08-07T04:53:03;99355.94;;;20.37;59.53
4410;BME280;2218;51.408;7.208;2023-08-07T04:55:31;99361.22;;;20.37;59.44
4410;BME280;2218;51.408;7.208;2023-08-07T04:57:58;99355.94;;;20.37;59.60
4410;BME280;2218;51.408;7.208;2023-08-07T05:00:27;99362.19;;;20.36;59.39
4410;BME280;2218;51.408;7.208;2023-08-07T05:02:54;99363.16;;;20.35;59.54
4410;BME280;2218;51.408;7.208;2023-08-07T05:05:22;99357.88;;;20.35;59.56
4410;BME280;2218;51.408;7.208;2023-08-07T05:07:49;99359.56;;;20.36;59.34
4410;BME280;2218;51.408;7.208;2023-08-07T05:10:16;99357.88;;;20.35;59.49
4410;BME280;2218;51.408;7.208;2023-08-07T05:12:44;99357.03;;;20.35;59.70
4410;BME280;2218;51.408;7.208;2023-08-07T05:15:11;99357.03;;;20.35;59.40
4410;BME280;2218;51.408;7.208;2023-08-07T05:17:38;99358.84;;;20.34;59.49
4410;BME280;2218;51.408;7.208;2023-08-07T05:20:07;99361.50;;;20.34;59.41
4410;BME280;2218;51.408;7.208;2023-08-07T05:22:36;99360.66;;;20.34;59.59
4410;BME280;2218;51.408;7.208;2023-08-07T05:25:03;99359.78;;;20.33;59.62
4410;BME280;2218;51.408;7.208;2023-08-07T05:27:30;99370.34;;;20.33;59.47
4410;BME280;2218;51.408;7.208;2023-08-07T05:29:59;99372.03;;;20.34;59.19
4410;BME280;2218;51.408;7.208;2023-08-07T05:32:26;99369.50;;;20.33;59.37
4410;BME280;2218;51.408;7.208;2023-08-07T05:34:54;99357.88;;;20.35;59.57
4410;BME280;2218;51.408;7.208;2023-08-07T05:37:21;99368.31;;;20.48;58.09
4410;BME280;2218;51.408;7.208;2023-08-07T05:39:49;99365.78;;;20.58;57.43
4410;BME280;2218;51.408;7.208;2023-08-07T05:42:16;99361.72;;;20.65;57.09
4410;BME280;2218;51.408;7.208;2023-08-07T05:44:43;99356.06;;;20.70;56.75
4410;BME280;2218;51.408;7.208;2023-08-07T05:47:10;99358.56;;;20.71;56.86
4410;BME280;2218;51.408;7.208;2023-08-07T05:49:37;99361.06;;;20.73;57.04
4410;BME280;2218;51.408;7.208;2023-08-07T05:52:06;99360.13;;;20.74;56.60
4410;BME280;2218;51.408;7.208;2023-08-07T05:54:33;99348.34;;;20.78;56.65
4410;BME280;2218;51.408;7.208;2023-08-07T05:57:01;99359.03;;;20.76;56.82
4410;BME280;2218;51.408;7.208;2023-08-07T05:59:28;99360.00;;;20.75;57.45
4410;BME280;2218;51.408;7.208;2023-08-07T06:01:55;99368.88;;;20.74;57.05
4410;BME280;2218;51.408;7.208;2023-08-07T06:04:22;99362.88;;;20.72;57.46
4410;BME280;2218;51.408;7.208;2023-08-07T06:06:49;99368.88;;;20.74;57.07
4410;BME280;2218;51.408;7.208;2023-08-07T06:09:16;99363.34;;;20.77;57.30
4410;BME280;2218;51.408;7.208;2023-08-07T06:11:43;99364.53;;;20.84;56.27
4410;BME280;2218;51.408;7.208;2023-08-07T06:14:11;99373.63;;;20.91;56.69
4410;BME280;2218;51.408;7.208;2023-08-07T06:16:38;99380.59;;;20.92;56.13
4410;BME280;2218;51.408;7.208;2023-08-07T06:19:05;99382.97;;;20.96;56.38
4410;BME280;2218;51.408;7.208;2023-08-07T06:21:32;99380.47;;;20.94;56.26
4410;BME280;2218;51.408;7.208;2023-08-07T06:23:59;99389.44;;;21.03;55.45
4410;BME280;2218;51.408;7.208;2023-08-07T06:26:26;99395.69;;;21.02;56.16
4410;BME280;2218;51.408;7.208;2023-08-07T06:28:53;99398.09;;;21.05;55.63
4410;BME280;2218;51.408;7.208;2023-08-07T06:31:21;99393.66;;;21.05;55.81
4410;BME280;2218;51.408;7.208;2023-08-07T06:33:49;99403.09;;;21.08;55.42
4410;BME280;2218;51.408;7.208;2023-08-07T06:36:16;99403.00;;;21.09;55.53
4410;BME280;2218;51.408;7.208;2023-08-07T06:38:43;99408.16;;;21.11;55.72
4410;BME280;2218;51.408;7.208;2023-08-07T06:41:10;99416.09;;;21.11;55.83
4410;BME280;2218;51.408;7.208;2023-08-07T06:43:37;99410.09;;;21.09;56.06
4410;BME280;2218;51.408;7.208;2023-08-07T06:46:04;99409.38;;;21.07;56.29
4410;BME280;2218;51.408;7.208;2023-08-07T06:48:32;99413.69;;;21.08;56.28
4410;BME280;2218;51.408;7.208;2023-08-07T06:50:59;99413.94;;;21.05;56.08
4410;BME280;2218;51.408;7.208;2023-08-07T06:53:26;99417.78;;;21.01;55.96
4410;BME280;2218;51.408;7.208;2023-08-07T06:55:53;99413.22;;;21.03;56.07
4410;BME280;2218;51.408;7.208;2023-08-07T06:58:20;99414.91;;;21.04;56.23
4410;BME280;2218;51.408;7.208;2023-08-07T07:00:47;99418.13;;;21.07;55.96
4410;BME280;2218;51.408;7.208;2023-08-07T07:03:14;99415.38;;;21.09;56.16
4410;BME280;2218;51.408;7.208;2023-08-07T07:05:42;99422.84;;;21.04;56.25
4410;BME280;2218;51.408;7.208;2023-08-07T07:08:09;99424.06;;;21.00;56.09
4410;BME280;2218;51.408;7.208;2023-08-07T07:10:36;99419.75;;;20.99;56.44
4410;BME280;2218;51.408;7.208;2023-08-07T07:13:03;99433.78;;;20.99;56.21
4410;BME280;2218;51.408;7.208;2023-08-07T07:15:30;99432.81;;;21.00;56.54
4410;BME280;2218;51.408;7.208;2023-08-07T07:17:57;99428.59;;;20.98;56.91
4410;BME280;2218;51.408;7.208;2023-08-07T07:20:25;99435.59;;;20.99;56.86
4410;BME280;2218;51.408;7.208;2023-08-07T07:22:54;99444.44;;;20.98;56.42
4410;BME280;2218;51.408;7.208;2023-08-07T07:25:21;99447.09;;;20.98;57.16
4410;BME280;2218;51.408;7.208;2023-08-07T07:27:48;99450.84;;;20.95;56.81
4410;BME280;2218;51.408;7.208;2023-08-07T07:30:15;99456.97;;;20.96;57.05
4410;BME280;2218;51.408;7.208;2023-08-07T07:32:42;99466.56;;;20.97;57.03
4410;BME280;2218;51.408;7.208;2023-08-07T07:35:09;99470.16;;;20.96;56.69
4410;BME280;2218;51.408;7.208;2023-08-07T07:37:35;99472.09;;;20.94;56.74
4410;BME280;2218;51.408;7.208;2023-08-07T07:40:05;99476.03;;;20.88;56.98
4410;BME280;2218;51.408;7.208;2023-08-07T07:42:32;99474.13;;;20.90;57.25
4410;BME280;2218;51.408;7.208;2023-08-07T07:44:59;99484.56;;;20.91;57.46
4410;BME280;2218;51.408;7.208;2023-08-07T07:47:26;99474.00;;;20.91;57.11
4410;BME280;2218;51.408;7.208;2023-08-07T07:50:06;99482.53;;;20.95;57.01
4410;BME280;2218;51.408;7.208;2023-08-07T07:52:34;99479.16;;;20.93;57.08
4410;BME280;2218;51.408;7.208;2023-08-07T07:55:01;99475.94;;;20.89;57.18
4410;BME280;2218;51.408;7.208;2023-08-07T07:57:29;99489.16;;;20.89;57.50
4410;BME280;2218;51.408;7.208;2023-08-07T07:59:56;99485.41;;;20.92;57.24
4410;BME280;2218;51.408;7.208;2023-08-07T08:02:23;99494.16;;;20.92;57.30
4410;BME280;2218;51.408;7.208;2023-08-07T08:04:51;99497.53;;;20.95;57.50
4410;BME280;2218;51.408;7.208;2023-08-07T08:07:18;99497.53;;;20.95;57.50
4410;BME280;2218;51.408;7.208;2023-08-07T08:09:45;99502.94;;;20.93;57.54
4410;BME280;2218;51.408;7.208;2023-08-07T08:12:12;99507.38;;;20.92;57.75
4410;BME280;2218;51.408;7.208;2023-08-07T08:14:41;99515.56;;;20.89;57.77
4410;BME280;2218;51.408;7.208;2023-08-07T08:17:08;99529.75;;;20.88;57.83
4410;BME280;2218;51.408;7.208;2023-08-07T08:19:35;99535.25;;;20.85;58.00
4410;BME280;2218;51.408;7.208;2023-08-07T08:22:02;99533.56;;;20.84;57.67
4410;BME280;2218;51.408;7.208;2023-08-07T08:24:29;99535.75;;;20.79;58.41
4410;BME280;2218;51.408;7.208;2023-08-07T08:26:57;99543.06;;;20.76;58.31
4410;BME280;2218;51.408;7.208;2023-08-07T08:29:24;99536.19;;;20.73;58.58
4410;BME280;2218;51.408;7.208;2023-08-07T08:31:53;99535.34;;;20.73;58.59
4410;BME280;2218;51.408;7.208;2023-08-07T08:34:21;99530.69;;;20.76;58.62
4410;BME280;2218;51.408;7.208;2023-08-07T08:36:48;99534.78;;;20.80;58.42
4410;BME280;2218;51.408;7.208;2023-08-07T08:39:15;99546.78;;;20.84;58.30
4410;BME280;2218;51.408;7.208;2023-08-07T08:41:46;99556.38;;;20.85;58.61
4410;BME280;2218;51.408;7.208;2023-08-07T08:44:16;99559.16;;;20.84;58.47
4410;BME280;2218;51.408;7.208;2023-08-07T08:46:45;99556.88;;;20.79;58.73
4410;BME280;2218;51.408;7.208;2023-08-07T08:49:18;99562.38;;;20.76;58.63
4410;BME280;2218;51.408;7.208;2023-08-07T08:51:47;99561.31;;;20.79;58.67
4410;BME280;2218;51.408;7.208;2023-08-07T08:54:14;99584.00;;;20.81;58.73
4410;BME280;2218;51.408;7.208;2023-08-07T08:56:42;99585.56;;;20.84;58.79
4410;BME280;2218;51.408;7.208;2023-08-07T08:59:10;99593.97;;;20.89;58.57
4410;BME280;2218;51.408;7.208;2023-08-07T09:01:38;99595.03;;;20.98;58.44
4410;BME280;2218;51.408;7.208;2023-08-07T09:04:06;99598.28;;;21.01;58.47
4410;BME280;2218;51.408;7.208;2023-08-07T09:06:34;99604.19;;;21.05;58.17
4410;BME280;2218;51.408;7.208;2023-08-07T09:09:02;99603.91;;;21.08;57.78
4410;BME280;2218;51.408;7.208;2023-08-07T09:11:30;99602.97;;;21.09;57.63
4410;BME280;2218;51.408;7.208;2023-08-07T09:14:01;99598.41;;;21.11;57.93
4410;BME280;2218;51.408;7.208;2023-08-07T09:16:30;99611.47;;;21.12;58.15
4410;BME280;2218;51.408;7.208;2023-08-07T09:18:57;99613.78;;;21.17;57.47
4410;BME280;2218;51.408;7.208;2023-08-07T09:21:24;99617.16;;;21.19;57.49
4410;BME280;2218;51.408;7.208;2023-08-07T09:23:54;99609.22;;;21.19;57.38
4410;BME280;2218;51.408;7.208;2023-08-07T09:26:22;99614.38;;;21.21;57.80
4410;BME280;2218;51.408;7.208;2023-08-07T09:28:52;99619.44;;;21.24;57.79
4410;BME280;2218;51.408;7.208;2023-08-07T09:31:20;99621.22;;;21.23;57.70
4410;BME280;2218;51.408;7.208;2023-08-07T09:33:48;99621.81;;;21.27;57.98
4410;BME280;2218;51.408;7.208;2023-08-07T09:36:15;99612.81;;;21.29;57.39
4410;BME280;2218;51.408;7.208;2023-08-07T09:38:45;99613.75;;;21.28;57.65
4410;BME280;2218;51.408;7.208;2023-08-07T09:41:19;99624.59;;;21.25;57.87
4410;BME280;2218;51.408;7.208;2023-08-07T09:43:46;99622.19;;;21.22;57.74
4410;BME280;2218;51.408;7.208;2023-08-07T09:46:13;99628.56;;;21.20;57.91
4410;BME280;2218;51.408;7.208;2023-08-07T09:48:41;99635.53;;;21.21;57.91
4410;BME280;2218;51.408;7.208;2023-08-07T09:51:08;99631.06;;;21.21;58.20
4410;BME280;2218;51.408;7.208;2023-08-07T09:53:36;99632.75;;;21.22;58.23
4410;BME280;2218;51.408;7.208;2023-08-07T09:56:03;99625.91;;;21.20;58.31
4410;BME280;2218;51.408;7.208;2023-08-07T09:58:32;99625.06;;;21.19;58.14
4410;BME280;2218;51.408;7.208;2023-08-07T10:01:02;99633.94;;;21.18;58.51
4410;BME280;2218;51.408;7.208;2023-08-07T10:03:30;99628.78;;;21.16;58.54
4410;BME280;2218;51.408;7.208;2023-08-07T10:05:58;99644.66;;;21.16;58.44
4410;BME280;2218;51.408;7.208;2023-08-07T10:08:26;99648.38;;;21.14;58.15
4410;BME280;2218;51.408;7.208;2023-08-07T10:10:53;99649.31;;;21.13;58.11
4410;BME280;2218;51.408;7.208;2023-08-07T10:13:22;99657.25;;;21.13;57.99
4410;BME280;2218;51.408;7.208;2023-08-07T10:15:51;99665.91;;;21.15;58.74
4410;BME280;2218;51.408;7.208;2023-08-07T10:18:18;99663.00;;;21.18;59.01
4410;BME280;2218;51.408;7.208;2023-08-07T10:20:47;99670.00;;;21.19;58.73
4410;BME280;2218;51.408;7.208;2023-08-07T10:23:15;99664.59;;;21.21;58.85
4410;BME280;2218;51.408;7.208;2023-08-07T10:25:45;99668.06;;;21.21;58.35
4410;BME280;2218;51.408;7.208;2023-08-07T10:28:18;99669.75;;;21.22;58.33
4410;BME280;2218;51.408;7.208;2023-08-07T10:30:46;99678.66;;;21.21;57.88
4410;BME280;2218;51.408;7.208;2023-08-07T10:33:16;99674.19;;;21.22;57.91
4410;BME280;2218;51.408;7.208;2023-08-07T10:35:47;99676.72;;;21.23;58.33
4410;BME280;2218;51.408;7.208;2023-08-07T10:38:15;99678.41;;;21.24;57.98
4410;BME280;2218;51.408;7.208;2023-08-07T10:41:02;99680.09;;;21.25;58.34
4410;BME280;2218;51.408;7.208;2023-08-07T10:43:30;99685.25;;;21.27;58.53
4410;BME280;2218;51.408;7.208;2023-08-07T10:46:04;99679.00;;;21.28;57.89
4410;BME280;2218;51.408;7.208;2023-08-07T10:48:41;99675.53;;;21.27;58.41
4410;BME280;2218;51.408;7.208;2023-08-07T10:51:08;99673.00;;;21.26;58.22
4410;BME280;2218;51.408;7.208;2023-08-07T10:53:39;99677.44;;;21.25;58.26
4410;BME280;2218;51.408;7.208;2023-08-07T10:56:10;99673.13;;;21.24;58.32
4410;BME280;2218;51.408;7.208;2023-08-07T10:58:41;99678.41;;;21.24;58.34
4410;BME280;2218;51.408;7.208;2023-08-07T11:01:40;99667.84;;;21.24;58.66
4410;BME280;2218;51.408;7.208;2023-08-07T11:04:12;99672.16;;;21.25;58.28
4410;BME280;2218;51.408;7.208;2023-08-07T11:06:40;99682.75;;;21.25;58.60
4410;BME280;2218;51.408;7.208;2023-08-07T11:09:09;99686.22;;;21.26;58.07
4410;BME280;2218;51.408;7.208;2023-08-07T11:11:38;99693.19;;;21.27;58.35
4410;BME280;2218;51.408;7.208;2023-08-07T11:14:06;99682.47;;;21.28;58.19
4410;BME280;2218;51.408;7.208;2023-08-07T11:16:34;99687.75;;;21.28;58.31
4410;BME280;2218;51.408;7.208;2023-08-07T11:19:01;99687.66;;;21.30;58.22
4410;BME280;2218;51.408;7.208;2023-08-07T11:21:31;99692.94;;;21.30;58.56
4410;BME280;2218;51.408;7.208;2023-08-07T11:23:58;99694.53;;;21.32;57.94
4410;BME280;2218;51.408;7.208;2023-08-07T11:26:25;99687.44;;;21.33;58.44
4410;BME280;2218;51.408;7.208;2023-08-07T11:28:54;99697.19;;;21.32;58.32
4410;BME280;2218;51.408;7.208;2023-08-07T11:31:22;99692.72;;;21.33;58.13
4410;BME280;2218;51.408;7.208;2023-08-07T11:33:51;99702.22;;;21.35;57.75
4410;BME280;2218;51.408;7.208;2023-08-07T11:36:18;99698.75;;;21.35;58.03
4410;BME280;2218;51.408;7.208;2023-08-07T11:38:46;99688.88;;;21.37;57.69
4410;BME280;2218;51.408;7.208;2023-08-07T11:41:15;99697.56;;;21.39;57.66
4410;BME280;2218;51.408;7.208;2023-08-07T11:43:43;99680.84;;;21.38;57.99
4410;BME280;2218;51.408;7.208;2023-08-07T11:46:12;99689.72;;;21.37;57.52
4410;BME280;2218;51.408;7.208;2023-08-07T11:48:42;99692.50;;;21.36;57.91
4410;BME280;2218;51.408;7.208;2023-08-07T11:51:09;99692.38;;;21.37;57.26
4410;BME280;2218;51.408;7.208;2023-08-07T11:53:39;99696.72;;;21.38;57.43
4410;BME280;2218;51.408;7.208;2023-08-07T11:56:10;99688.78;;;21.38;57.93
4410;BME280;2218;51.408;7.208;2023-08-07T11:58:41;99703.78;;;21.38;57.93
4410;BME280;2218;51.408;7.208;2023-08-07T12:01:10;99692.38;;;21.37;57.84
4410;BME280;2218;51.408;7.208;2023-08-07T12:03:42;99702.09;;;21.37;57.94
4410;BME280;2218;51.408;7.208;2023-08-07T12:06:09;99689.72;;;21.37;57.46
4410;BME280;2218;51.408;7.208;2023-08-07T12:08:38;99695.00;;;21.37;58.00
4410;BME280;2218;51.408;7.208;2023-08-07T12:11:09;99702.09;;;21.37;57.52
4410;BME280;2218;51.408;7.208;2023-08-07T12:13:38;99688.78;;;21.38;58.05
4410;BME280;2218;51.408;7.208;2023-08-07T12:16:07;99703.78;;;21.38;57.52
4410;BME280;2218;51.408;7.208;2023-08-07T12:18:37;99700.19;;;21.39;57.68
4410;BME280;2218;51.408;7.208;2023-08-07T12:21:07;99696.72;;;21.38;57.58
4410;BME280;2218;51.408;7.208;2023-08-07T12:23:36;99698.41;;;21.39;58.02
4410;BME280;2218;51.408;7.208;2023-08-07T12:26:04;99702.72;;;21.40;58.06
4410;BME280;2218;51.408;7.208;2023-08-07T12:28:34;99711.63;;;21.39;58.04
4410;BME280;2218;51.408;7.208;2023-08-07T12:31:02;99707.28;;;21.38;58.20
4410;BME280;2218;51.408;7.208;2023-08-07T12:33:29;99704.66;;;21.38;57.96
4410;BME280;2218;51.408;7.208;2023-08-07T12:35:57;99705.50;;;21.39;57.72
4410;BME280;2218;51.408;7.208;2023-08-07T12:38:25;99708.97;;;21.39;57.66
4410;BME280;2218;51.408;7.208;2023-08-07T12:40:52;99702.00;;;21.38;57.88
4410;BME280;2218;51.408;7.208;2023-08-07T12:43:19;99708.97;;;21.39;57.80
4410;BME280;2218;51.408;7.208;2023-08-07T12:45:47;99715.94;;;21.40;58.00
4410;BME280;2218;51.408;7.208;2023-08-07T12:48:14;99711.50;;;21.41;57.57
4410;BME280;2218;51.408;7.208;2023-08-07T12:50:41;99722.91;;;21.41;57.53
4410;BME280;2218;51.408;7.208;2023-08-07T12:53:08;99719.66;;;21.38;57.69
4410;BME280;2218;51.408;7.208;2023-08-07T12:55:35;99722.19;;;21.39;57.03
4410;BME280;2218;51.408;7.208;2023-08-07T12:58:02;99714.25;;;21.39;57.17
4410;BME280;2218;51.408;7.208;2023-08-07T13:00:29;99712.31;;;21.41;57.19
4410;BME280;2218;51.408;7.208;2023-08-07T13:02:58;99718.34;;;21.44;56.90
4410;BME280;2218;51.408;7.208;2023-08-07T13:05:25;99727.13;;;21.44;56.89
4410;BME280;2218;51.408;7.208;2023-08-07T13:07:52;99722.66;;;21.45;56.77
4410;BME280;2218;51.408;7.208;2023-08-07T13:10:21;99723.50;;;21.45;56.13
4410;BME280;2218;51.408;7.208;2023-08-07T13:12:49;99713.78;;;21.46;55.79
4410;BME280;2218;51.408;7.208;2023-08-07T13:15:17;99726.88;;;21.47;56.12
4410;BME280;2218;51.408;7.208;2023-08-07T13:17:44;99727.69;;;21.48;56.19
4410;BME280;2218;51.408;7.208;2023-08-07T13:20:14;99738.28;;;21.48;56.22
4410;BME280;2218;51.408;7.208;2023-08-07T13:22:42;99736.38;;;21.50;56.00
4410;BME280;2218;51.408;7.208;2023-08-07T13:25:11;99730.81;;;21.53;55.88
4410;BME280;2218;51.408;7.208;2023-08-07T13:27:39;99733.38;;;21.54;56.16